Time;durP1;ratioP1;P1;durP2;ratioP2;P2;SDS_P1;SDS_P2;PMS_P1;PMS_P2;Temp;Humidity;BMP_temperature;BMP_pressure;BME280_temperature;BME280_humidity;BME280_pressure;Samples;Min_cycle;Max_cycle;Signal;HPM_P1;HPM_P2
2022/01/04 00:01:37;;;;;;;8.07;3.35;;;;;;;;;;5052333;28;20048;-76
2022/01/04 00:04:03;;;;;;;10.23;4.55;;;;;;;;;;5051821;28;20064;-75
2022/01/04 00:06:29;;;;;;;7.20;2.35;;;;;;;;;;5052359;28;20021;-76
2022/01/04 00:09:00;;;;;;;5.03;2.33;;;;;;;;;;5052399;28;20028;-76
2022/01/04 00:11:44;;;;;;;20.13;8.03;;;;;;;;;;5052560;28;20029;-76
2022/01/04 00:14:11;;;;;;;6.78;1.85;;;;;;;;;;5020762;28;20736;-75
2022/01/04 00:16:37;;;;;;;7.18;3.30;;;;;;;;;;5034381;28;20114;-76
2022/01/04 00:19:03;;;;;;;16.95;6.85;;;;;;;;;;5052098;28;20033;-75
2022/01/04 00:21:29;;;;;;;20.80;8.82;;;;;;;;;;5034266;28;20029;-76
2022/01/04 00:23:55;;;;;;;6.10;2.25;;;;;;;;;;5051535;28;20025;-76
2022/01/04 00:26:21;;;;;;;5.78;2.45;;;;;;;;;;5051896;28;20033;-76
2022/01/04 00:28:47;;;;;;;12.73;5.57;;;;;;;;;;5052185;28;20029;-76
2022/01/04 00:31:13;;;;;;;3.90;1.70;;;;;;;;;;5034133;28;20557;-75
2022/01/04 00:33:39;;;;;;;8.57;3.70;;;;;;;;;;5050898;28;20339;-75
2022/01/04 00:36:06;;;;;;;3.42;2.30;;;;;;;;;;5052021;28;20111;-76
2022/01/04 00:38:32;;;;;;;3.60;1.75;;;;;;;;;;5051990;28;20070;-76
2022/01/04 00:40:58;;;;;;;2.42;1.35;;;;;;;;;;5051847;28;20029;-76
2022/01/04 00:43:27;;;;;;;5.13;1.88;;;;;;;;;;5051115;28;20036;-76
2022/01/04 00:45:53;;;;;;;4.15;1.88;;;;;;;;;;5051305;28;20146;-76
2022/01/04 00:50:45;;;;;;;7.78;2.60;;;;;;;;;;5052127;28;20398;-76
2022/01/04 00:53:12;;;;;;;3.22;1.95;;;;;;;;;;5051001;28;20032;-77
2022/01/04 00:55:38;;;;;;;2.83;1.55;;;;;;;;;;5051695;28;20031;-77
2022/01/04 00:58:04;;;;;;;2.33;1.58;;;;;;;;;;5051454;28;20049;-76
2022/01/04 01:00:31;;;;;;;4.40;1.80;;;;;;;;;;5051639;28;20094;-76
2022/01/04 01:02:57;;;;;;;3.42;1.17;;;;;;;;;;5050868;28;20082;-76
2022/01/04 01:05:25;;;;;;;3.25;1.92;;;;;;;;;;5051419;28;20079;-76
2022/01/04 01:07:51;;;;;;;3.40;1.30;;;;;;;;;;5033357;28;20029;-75
2022/01/04 01:13:02;;;;;;;5.88;2.67;;;;;;;;;;5051252;28;20036;-75
2022/01/04 01:15:28;;;;;;;7.40;1.58;;;;;;;;;;5051241;28;20033;-76
2022/01/04 01:17:54;;;;;;;2.95;1.02;;;;;;;;;;5051164;28;20437;-76
2022/01/04 01:20:20;;;;;;;8.02;2.53;;;;;;;;;;5051419;28;20025;-76
2022/01/04 01:22:46;;;;;;;3.30;1.40;;;;;;;;;;5032953;28;20028;-75
2022/01/04 01:25:13;;;;;;;11.80;3.45;;;;;;;;;;5050643;28;20394;-74
2022/01/04 01:27:40;;;;;;;3.85;1.55;;;;;;;;;;5047297;28;20079;-76
2022/01/04 01:30:06;;;;;;;4.05;1.25;;;;;;;;;;5051029;28;20028;-76
2022/01/04 01:32:32;;;;;;;4.05;1.80;;;;;;;;;;5051260;28;20032;-76
2022/01/04 01:34:58;;;;;;;12.98;4.90;;;;;;;;;;5032486;28;20021;-76
2022/01/04 01:37:24;;;;;;;2.97;1.83;;;;;;;;;;5033699;28;20393;-76
2022/01/04 01:39:50;;;;;;;6.93;2.00;;;;;;;;;;5051019;28;20090;-76
2022/01/04 01:42:16;;;;;;;4.72;1.17;;;;;;;;;;5051391;28;20032;-75
2022/01/04 01:44:42;;;;;;;8.38;3.10;;;;;;;;;;5050079;28;20025;-76
2022/01/04 01:47:09;;;;;;;2.83;1.33;;;;;;;;;;5051250;28;20025;-75
2022/01/04 01:49:35;;;;;;;4.82;2.33;;;;;;;;;;5033148;28;20490;-76
2022/01/04 01:52:01;;;;;;;6.10;1.20;;;;;;;;;;5050966;28;20490;-75
2022/01/04 01:54:27;;;;;;;21.38;8.65;;;;;;;;;;5050275;28;20106;-76
2022/01/04 01:56:53;;;;;;;6.05;1.95;;;;;;;;;;5033073;28;20068;-78
2022/01/04 01:59:19;;;;;;;4.55;2.10;;;;;;;;;;5050692;28;20133;-76
2022/01/04 02:01:45;;;;;;;2.42;1.50;;;;;;;;;;5050684;28;20056;-76
2022/01/04 02:04:11;;;;;;;2.10;0.80;;;;;;;;;;5032465;28;20029;-76
2022/01/04 02:06:37;;;;;;;2.90;1.77;;;;;;;;;;5051158;28;20079;-76
2022/01/04 02:09:04;;;;;;;2.60;0.90;;;;;;;;;;5051219;28;20027;-76
2022/01/04 02:11:30;;;;;;;2.25;1.35;;;;;;;;;;5054230;28;20052;-75
2022/01/04 02:13:57;;;;;;;6.10;2.83;;;;;;;;;;5054204;28;20029;-75
2022/01/04 02:16:25;;;;;;;2.40;0.90;;;;;;;;;;5055027;28;20070;-75
2022/01/04 02:18:51;;;;;;;2.28;1.23;;;;;;;;;;5055081;28;20029;-75
2022/01/04 02:21:17;;;;;;;2.83;1.05;;;;;;;;;;5054797;28;20088;-75
2022/01/04 02:23:43;;;;;;;2.10;0.90;;;;;;;;;;5036114;28;20113;-76
2022/01/04 02:26:09;;;;;;;5.93;1.40;;;;;;;;;;5054683;28;20535;-75
2022/01/04 02:28:35;;;;;;;4.60;1.05;;;;;;;;;;5054403;28;20021;-76
2022/01/04 02:31:01;;;;;;;1.38;0.68;;;;;;;;;;5054567;28;20397;-75
2022/01/04 02:33:27;;;;;;;2.45;1.23;;;;;;;;;;5055859;28;20028;-73
2022/01/04 02:35:53;;;;;;;2.45;1.15;;;;;;;;;;5054357;28;20040;-76
2022/01/04 02:38:19;;;;;;;1.73;0.93;;;;;;;;;;5036396;28;20029;-76
2022/01/04 02:40:45;;;;;;;1.80;0.90;;;;;;;;;;5036281;28;20478;-76
2022/01/04 02:43:11;;;;;;;4.57;1.10;;;;;;;;;;5053664;28;20037;-76
2022/01/04 02:45:37;;;;;;;1.50;1.02;;;;;;;;;;5053748;28;20120;-77
2022/01/04 02:48:03;;;;;;;0.98;0.80;;;;;;;;;;5054251;28;20049;-76
2022/01/04 02:50:29;;;;;;;1.40;0.70;;;;;;;;;;5054129;28;20059;-76
2022/01/04 02:52:55;;;;;;;2.40;0.88;;;;;;;;;;5053560;28;20025;-75
2022/01/04 02:55:21;;;;;;;4.00;1.92;;;;;;;;;;5053577;28;20035;-75
2022/01/04 02:57:47;;;;;;;8.15;3.60;;;;;;;;;;5053652;28;20308;-76
2022/01/04 03:00:15;;;;;;;4.13;1.70;;;;;;;;;;5053833;28;20029;-75
2022/01/04 03:02:41;;;;;;;5.05;2.35;;;;;;;;;;5035868;28;20432;-73
2022/01/04 03:05:08;;;;;;;7.28;2.58;;;;;;;;;;5053216;28;20482;-76
2022/01/04 03:07:34;;;;;;;3.17;1.27;;;;;;;;;;5053512;28;20551;-76
2022/01/04 03:10:00;;;;;;;4.43;1.40;;;;;;;;;;5053366;28;20021;-76
2022/01/04 03:12:26;;;;;;;2.63;0.95;;;;;;;;;;5053586;28;20032;-76
2022/01/04 03:14:52;;;;;;;2.78;1.30;;;;;;;;;;5052945;28;20025;-76
2022/01/04 03:17:18;;;;;;;4.15;1.48;;;;;;;;;;5053863;28;20025;-77
2022/01/04 03:19:44;;;;;;;4.05;1.30;;;;;;;;;;5053214;28;20021;-77
2022/01/04 03:22:09;;;;;;;3.08;0.90;;;;;;;;;;5052900;28;20040;-76
2022/01/04 03:24:35;;;;;;;2.13;1.10;;;;;;;;;;5052806;28;20047;-77
2022/01/04 03:27:01;;;;;;;3.28;1.42;;;;;;;;;;5049754;28;20040;-76
2022/01/04 03:29:27;;;;;;;1.92;0.95;;;;;;;;;;5053180;28;20461;-76
2022/01/04 03:31:57;;;;;;;4.13;1.20;;;;;;;;;;5035283;28;20021;-77
2022/01/04 03:34:23;;;;;;;3.67;1.08;;;;;;;;;;5052556;28;20308;-76
2022/01/04 03:36:49;;;;;;;3.63;1.20;;;;;;;;;;5053161;28;20059;-76
2022/01/04 03:39:15;;;;;;;2.53;1.17;;;;;;;;;;5052928;28;20029;-77
2022/01/04 03:41:42;;;;;;;3.42;1.92;;;;;;;;;;5052785;28;20470;-77
2022/01/04 03:44:18;;;;;;;6.10;2.50;;;;;;;;;;5034432;28;20029;-76
2022/01/04 03:46:44;;;;;;;7.03;2.83;;;;;;;;;;5053176;28;20029;-76
2022/01/04 03:49:10;;;;;;;8.48;2.67;;;;;;;;;;5053093;28;20021;-77
2022/01/04 03:51:36;;;;;;;10.82;3.90;;;;;;;;;;5052511;28;20029;-76
2022/01/04 03:54:04;;;;;;;6.47;3.55;;;;;;;;;;5034330;28;20033;-75
2022/01/04 03:56:30;;;;;;;7.70;3.75;;;;;;;;;;5052930;28;20054;-75
2022/01/04 03:58:56;;;;;;;4.45;3.60;;;;;;;;;;5052887;28;20367;-76
2022/01/04 04:01:22;;;;;;;6.43;3.35;;;;;;;;;;5052685;28;20028;-75
2022/01/04 04:03:48;;;;;;;5.53;2.33;;;;;;;;;;5051844;28;20075;-77
2022/01/04 04:06:14;;;;;;;5.07;1.77;;;;;;;;;;5052810;28;20544;-77
2022/01/04 04:08:40;;;;;;;2.25;1.60;;;;;;;;;;5052819;28;20363;-76
2022/01/04 04:11:06;;;;;;;6.82;1.90;;;;;;;;;;5052852;28;20082;-78
2022/01/04 04:13:32;;;;;;;6.78;2.65;;;;;;;;;;5052017;28;20028;-76
2022/01/04 04:15:58;;;;;;;6.32;2.20;;;;;;;;;;5034273;28;20388;-74
2022/01/04 04:18:24;;;;;;;6.13;2.53;;;;;;;;;;5052622;28;20047;-75
2022/01/04 04:20:50;;;;;;;8.52;2.08;;;;;;;;;;5052349;28;20025;-76
2022/01/04 04:23:16;;;;;;;5.60;1.95;;;;;;;;;;5051753;28;20021;-76
2022/01/04 04:25:42;;;;;;;6.30;2.30;;;;;;;;;;5052083;28;20371;-76
2022/01/04 04:28:08;;;;;;;3.78;1.50;;;;;;;;;;5052753;28;20025;-76
2022/01/04 04:30:36;;;;;;;9.43;3.95;;;;;;;;;;5052492;28;20151;-76
2022/01/04 04:33:02;;;;;;;7.57;4.03;;;;;;;;;;5050661;28;20079;-75
2022/01/04 04:35:29;;;;;;;5.57;2.08;;;;;;;;;;5051993;28;20029;-76
2022/01/04 04:37:55;;;;;;;5.32;1.92;;;;;;;;;;5051892;28;20052;-77
2022/01/04 04:40:21;;;;;;;11.38;4.35;;;;;;;;;;5052284;28;20532;-76
2022/01/04 04:42:47;;;;;;;7.35;3.28;;;;;;;;;;5051738;28;20544;-77
2022/01/04 04:45:13;;;;;;;2.75;1.73;;;;;;;;;;5076865;22;20041;-76
2022/01/04 04:47:39;;;;;;;5.43;1.90;;;;;;;;;;5068664;28;20036;-76
2022/01/04 04:50:06;;;;;;;8.65;2.85;;;;;;;;;;5073255;28;20028;-76
2022/01/04 04:52:32;;;;;;;4.38;2.42;;;;;;;;;;5055706;28;20036;-77
2022/01/04 04:54:58;;;;;;;6.10;2.50;;;;;;;;;;5054632;28;20477;-76
2022/01/04 04:57:24;;;;;;;5.38;1.80;;;;;;;;;;5054635;28;20032;-76
2022/01/04 04:59:49;;;;;;;6.25;3.20;;;;;;;;;;5072981;28;20025;-76
2022/01/04 05:02:15;;;;;;;7.15;3.75;;;;;;;;;;5072627;28;20521;-76
2022/01/04 05:04:41;;;;;;;8.02;3.30;;;;;;;;;;5071604;28;20055;-76
2022/01/04 05:07:08;;;;;;;6.78;4.15;;;;;;;;;;5059960;28;20482;-76
2022/01/04 05:09:33;;;;;;;5.68;3.97;;;;;;;;;;5052154;28;20469;-76
2022/01/04 05:11:59;;;;;;;7.07;3.28;;;;;;;;;;5052174;28;20024;-76
2022/01/04 05:14:25;;;;;;;12.75;4.30;;;;;;;;;;5052062;28;20028;-76
2022/01/04 05:16:51;;;;;;;5.13;3.70;;;;;;;;;;5045136;28;20081;-77
2022/01/04 05:19:17;;;;;;;7.80;4.13;;;;;;;;;;5051819;28;20486;-76
2022/01/04 05:21:43;;;;;;;11.02;4.30;;;;;;;;;;5069432;28;20489;-75
2022/01/04 05:24:10;;;;;;;7.05;3.95;;;;;;;;;;5071205;28;20099;-76
2022/01/04 05:26:36;;;;;;;9.82;4.97;;;;;;;;;;5048908;28;20550;-76
2022/01/04 05:29:03;;;;;;;11.57;6.63;;;;;;;;;;5071808;28;20107;-76
2022/01/04 05:31:29;;;;;;;11.95;7.43;;;;;;;;;;5071731;28;20500;-75
2022/01/04 05:33:55;;;;;;;10.35;6.78;;;;;;;;;;5070821;28;20029;-76
2022/01/04 05:36:21;;;;;;;11.18;7.15;;;;;;;;;;5071617;28;20131;-76
2022/01/04 05:38:47;;;;;;;11.98;6.75;;;;;;;;;;5071403;28;20029;-76
2022/01/04 05:41:14;;;;;;;13.30;7.97;;;;;;;;;;5071476;28;20021;-75
2022/01/04 05:43:40;;;;;;;10.95;6.43;;;;;;;;;;5071008;28;20029;-76
2022/01/04 05:46:06;;;;;;;12.02;6.75;;;;;;;;;;5057479;28;20520;-75
2022/01/04 05:48:32;;;;;;;9.27;6.10;;;;;;;;;;5057283;28;20028;-75
2022/01/04 05:50:58;;;;;;;12.73;7.28;;;;;;;;;;5057302;28;20020;-76
2022/01/04 05:53:24;;;;;;;14.73;8.50;;;;;;;;;;5075037;28;20028;-76
2022/01/04 05:55:50;;;;;;;15.77;8.45;;;;;;;;;;5075166;28;20307;-76
2022/01/04 05:58:16;;;;;;;14.70;8.60;;;;;;;;;;5075343;28;20024;-75
2022/01/04 06:00:42;;;;;;;14.80;8.52;;;;;;;;;;5075391;28;20024;-76
2022/01/04 06:03:08;;;;;;;12.80;8.77;;;;;;;;;;5074124;28;20060;-75
2022/01/04 06:05:34;;;;;;;17.23;10.13;;;;;;;;;;5074867;28;20389;-75
2022/01/04 06:08:00;;;;;;;14.90;8.35;;;;;;;;;;5074691;28;20434;-75
2022/01/04 06:10:26;;;;;;;15.63;8.75;;;;;;;;;;5075400;28;20055;-76
2022/01/04 06:15:19;;;;;;;15.35;9.13;;;;;;;;;;5075096;28;20040;-75
2022/01/04 06:17:49;;;;;;;17.05;9.25;;;;;;;;;;5074721;28;20039;-77
2022/01/04 06:20:17;;;;;;;17.50;8.88;;;;;;;;;;5074984;28;20021;-76
2022/01/04 06:22:43;;;;;;;15.00;8.07;;;;;;;;;;5074713;28;20028;-76
2022/01/04 06:25:10;;;;;;;15.55;8.00;;;;;;;;;;5073969;28;20035;-75
2022/01/04 06:27:37;;;;;;;15.50;7.82;;;;;;;;;;5074736;28;20039;-76
2022/01/04 06:30:03;;;;;;;15.07;7.65;;;;;;;;;;5057627;28;20128;-74
2022/01/04 06:32:29;;;;;;;13.20;7.70;;;;;;;;;;5056600;28;20440;-75
2022/01/04 06:34:55;;;;;;;14.00;7.55;;;;;;;;;;5074040;28;20381;-75
2022/01/04 06:37:21;;;;;;;14.70;6.70;;;;;;;;;;5074831;28;20029;-75
2022/01/04 06:39:47;;;;;;;19.13;7.40;;;;;;;;;;5074699;28;20064;-76
2022/01/04 06:42:13;;;;;;;13.77;7.47;;;;;;;;;;5074226;28;20048;-77
2022/01/04 06:44:41;;;;;;;12.88;7.25;;;;;;;;;;5073159;28;20025;-78
2022/01/04 06:47:08;;;;;;;15.10;6.90;;;;;;;;;;5074072;28;20029;-77
2022/01/04 06:49:34;;;;;;;11.75;6.53;;;;;;;;;;5074302;28;20021;-78
2022/01/04 06:52:00;;;;;;;12.93;6.30;;;;;;;;;;5074369;28;20070;-75
2022/01/04 06:54:26;;;;;;;12.35;6.53;;;;;;;;;;5074019;28;20477;-77
2022/01/04 06:56:52;;;;;;;12.45;6.25;;;;;;;;;;5073113;28;20036;-77
2022/01/04 06:59:18;;;;;;;15.82;6.25;;;;;;;;;;5074346;28;20025;-77
2022/01/04 07:01:45;;;;;;;11.23;5.57;;;;;;;;;;5055535;28;20024;-77
2022/01/04 07:04:11;;;;;;;11.73;5.57;;;;;;;;;;5073832;28;20021;-77
2022/01/04 07:06:37;;;;;;;13.98;6.72;;;;;;;;;;5074605;28;20035;-75
2022/01/04 07:09:04;;;;;;;15.10;6.93;;;;;;;;;;5074269;28;20401;-75
2022/01/04 07:11:30;;;;;;;11.68;6.43;;;;;;;;;;5055484;28;20048;-75
2022/01/04 07:13:56;;;;;;;11.60;6.25;;;;;;;;;;5072563;28;20094;-75
2022/01/04 07:16:22;;;;;;;12.43;5.50;;;;;;;;;;5073230;28;20033;-76
2022/01/04 07:18:49;;;;;;;14.23;6.00;;;;;;;;;;5055208;28;20119;-76
2022/01/04 07:21:19;;;;;;;14.48;6.40;;;;;;;;;;5073766;28;20102;-76
2022/01/04 07:23:45;;;;;;;14.70;5.80;;;;;;;;;;5072364;28;20036;-76
2022/01/04 07:26:14;;;;;;;11.77;5.28;;;;;;;;;;5065001;28;20026;-77
2022/01/04 07:28:41;;;;;;;13.35;5.28;;;;;;;;;;5065514;28;20486;-77
2022/01/04 07:31:07;;;;;;;10.15;5.60;;;;;;;;;;5073530;28;20174;-75
2022/01/04 07:33:33;;;;;;;10.45;5.10;;;;;;;;;;5045055;28;20030;-77
2022/01/04 07:35:59;;;;;;;17.80;5.88;;;;;;;;;;5071261;28;20036;-77
2022/01/04 07:38:25;;;;;;;10.98;6.13;;;;;;;;;;5073150;28;20388;-76
2022/01/04 07:40:51;;;;;;;12.98;6.97;;;;;;;;;;5072819;28;20032;-76
2022/01/04 07:43:17;;;;;;;12.13;6.20;;;;;;;;;;5072523;28;20546;-76
2022/01/04 07:45:43;;;;;;;12.52;6.40;;;;;;;;;;5072681;28;20040;-76
2022/01/04 07:48:12;;;;;;;12.55;6.50;;;;;;;;;;5073039;28;20036;-76
2022/01/04 07:50:39;;;;;;;15.10;6.25;;;;;;;;;;5073064;28;20566;-76
2022/01/04 07:53:14;;;;;;;15.90;6.47;;;;;;;;;;5072563;28;20348;-75
2022/01/04 07:55:40;;;;;;;12.85;6.22;;;;;;;;;;5073310;28;20031;-77
2022/01/04 07:58:06;;;;;;;14.43;6.85;;;;;;;;;;5054625;28;20142;-77
2022/01/04 08:00:32;;;;;;;13.80;6.10;;;;;;;;;;5072771;28;20485;-77
2022/01/04 08:02:58;;;;;;;11.75;5.75;;;;;;;;;;5072776;28;20056;-77
2022/01/04 08:05:25;;;;;;;14.05;7.22;;;;;;;;;;5072825;28;20027;-77
2022/01/04 08:07:51;;;;;;;13.20;6.78;;;;;;;;;;5054991;28;20020;-77
2022/01/04 08:10:18;;;;;;;17.80;7.47;;;;;;;;;;5073091;28;20055;-77
2022/01/04 08:12:44;;;;;;;13.30;6.75;;;;;;;;;;5072718;28;20028;-76
2022/01/04 08:15:11;;;;;;;14.57;7.45;;;;;;;;;;5072697;28;20025;-75
2022/01/04 08:17:38;;;;;;;17.48;7.88;;;;;;;;;;5054450;28;20082;-76
2022/01/04 08:20:05;;;;;;;16.88;7.93;;;;;;;;;;5033469;28;20045;-76
2022/01/04 08:22:32;;;;;;;19.15;8.73;;;;;;;;;;5029032;28;20024;-77
2022/01/04 08:25:06;;;;;;;20.52;9.20;;;;;;;;;;5072352;28;20028;-77
2022/01/04 08:27:32;;;;;;;18.08;9.80;;;;;;;;;;5072897;28;20020;-76
2022/01/04 08:29:58;;;;;;;16.25;10.48;;;;;;;;;;5072951;28;20025;-76
2022/01/04 08:32:24;;;;;;;20.85;11.05;;;;;;;;;;5072536;28;20035;-76
2022/01/04 08:34:53;;;;;;;22.13;10.93;;;;;;;;;;5072017;28;20100;-76
2022/01/04 08:37:19;;;;;;;28.52;13.65;;;;;;;;;;5072868;28;20457;-76
2022/01/04 08:39:46;;;;;;;28.00;13.60;;;;;;;;;;5072588;28;20035;-76
2022/01/04 08:42:12;;;;;;;31.60;14.43;;;;;;;;;;5054560;28;20036;-76
2022/01/04 08:44:39;;;;;;;33.67;15.00;;;;;;;;;;5071521;28;20028;-77
2022/01/04 08:47:09;;;;;;;33.85;15.13;;;;;;;;;;5054371;28;20025;-76
2022/01/04 08:49:35;;;;;;;35.03;16.00;;;;;;;;;;5054151;28;20043;-76
2022/01/04 08:52:01;;;;;;;33.75;16.95;;;;;;;;;;5072053;28;20428;-76
2022/01/04 08:54:27;;;;;;;37.70;16.75;;;;;;;;;;5071443;28;20497;-74
2022/01/04 08:56:54;;;;;;;40.30;17.33;;;;;;;;;;5062474;28;20021;-76
2022/01/04 08:59:20;;;;;;;37.33;16.67;;;;;;;;;;5046780;28;20544;-76
2022/01/04 09:01:46;;;;;;;38.83;16.52;;;;;;;;;;5070335;28;20493;-76
2022/01/04 09:04:12;;;;;;;41.20;16.73;;;;;;;;;;5042148;28;20031;-76
2022/01/04 09:06:38;;;;;;;40.05;16.95;;;;;;;;;;5071830;28;20048;-76
2022/01/04 09:09:05;;;;;;;42.50;16.63;;;;;;;;;;5055003;28;20016;-76
2022/01/04 09:11:31;;;;;;;37.88;16.50;;;;;;;;;;5058398;28;20075;-76
2022/01/04 09:14:42;;;;;;;39.63;17.33;;;;;;;;;;5075797;28;20324;-76
2022/01/04 09:19:31;;;;;;;47.10;18.55;;;;;;;;;;5071297;28;20059;-76
2022/01/04 09:21:57;;;;;;;39.38;17.70;;;;;;;;;;5054301;28;20082;-76
2022/01/04 09:24:23;;;;;;;39.83;18.20;;;;;;;;;;5072060;28;20024;-75
2022/01/04 09:26:49;;;;;;;42.00;17.55;;;;;;;;;;5071887;28;20028;-75
2022/01/04 09:29:19;;;;;;;42.13;18.90;;;;;;;;;;5071409;28;20020;-74
2022/01/04 09:31:46;;;;;;;54.72;19.27;;;;;;;;;;5071346;28;20016;-75
2022/01/04 09:34:12;;;;;;;46.17;19.30;;;;;;;;;;5055304;28;20096;-78
2022/01/04 09:36:39;;;;;;;82.82;23.58;;;;;;;;;;5056901;28;20085;-75
2022/01/04 09:39:09;;;;;;;56.05;19.77;;;;;;;;;;5062212;28;20052;-74
2022/01/04 09:41:36;;;;;;;51.17;20.42;;;;;;;;;;5066162;28;20027;-77
2022/01/04 09:44:07;;;;;;;73.97;23.73;;;;;;;;;;5065469;28;20488;-78
2022/01/04 09:46:34;;;;;;;56.72;21.02;;;;;;;;;;5068862;28;20101;-79
2022/01/04 09:49:00;;;;;;;70.97;23.13;;;;;;;;;;5073602;28;20025;-78
2022/01/04 09:51:27;;;;;;;67.13;24.05;;;;;;;;;;5055507;28;20027;-79
2022/01/04 09:53:54;;;;;;;71.68;23.50;;;;;;;;;;5072310;28;20028;-78
2022/01/04 09:56:20;;;;;;;56.20;21.60;;;;;;;;;;5045225;28;20029;-75
2022/01/04 09:58:47;;;;;;;77.55;24.17;;;;;;;;;;5028377;28;20496;-76
2022/01/04 10:01:20;;;;;;;64.90;22.88;;;;;;;;;;5069882;28;20492;-74
2022/01/04 10:03:46;;;;;;;46.80;20.50;;;;;;;;;;5070900;28;20032;-73
2022/01/04 10:06:15;;;;;;;49.90;20.23;;;;;;;;;;5057629;28;20033;-74
2022/01/04 10:08:56;;;;;;;61.80;22.13;;;;;;;;;;5055037;28;20017;-74
2022/01/04 10:11:32;;;;;;;75.93;22.92;;;;;;;;;;5053080;28;20111;-74
2022/01/04 10:14:21;;;;;;;81.28;24.02;;;;;;;;;;5064900;28;20295;-74
2022/01/04 10:16:51;;;;;;;68.22;21.70;;;;;;;;;;5038340;28;20031;-75
2022/01/04 10:19:27;;;;;;;53.20;20.08;;;;;;;;;;5052707;28;20036;-75
2022/01/04 10:22:12;;;;;;;66.20;22.65;;;;;;;;;;5071017;28;20020;-74
2022/01/04 10:24:38;;;;;;;62.15;21.55;;;;;;;;;;5065273;28;20476;-75
2022/01/04 10:27:22;;;;;;;59.22;21.55;;;;;;;;;;5062566;28;20049;-75
2022/01/04 10:29:49;;;;;;;48.03;19.15;;;;;;;;;;5066182;28;20032;-74
2022/01/04 10:32:15;;;;;;;64.10;20.67;;;;;;;;;;5073371;28;20048;-74
2022/01/04 10:34:50;;;;;;;59.30;21.63;;;;;;;;;;5073666;28;20066;-73
2022/01/04 10:37:39;;;;;;;58.33;21.27;;;;;;;;;;5074060;28;20025;-74
2022/01/04 10:40:06;;;;;;;50.80;19.08;;;;;;;;;;5074215;28;20028;-74
2022/01/04 10:42:32;;;;;;;55.90;19.73;;;;;;;;;;5042729;28;20170;-74
2022/01/04 10:47:29;;;;;;;45.55;18.10;;;;;;;;;;5077354;22;20060;-69
2022/01/04 10:49:56;;;;;;;40.83;18.23;;;;;;;;;;5073912;28;20038;-69
2022/01/04 10:52:30;;;;;;;41.17;17.73;;;;;;;;;;5073572;28;20142;-67
2022/01/04 10:55:12;;;;;;;40.38;18.13;;;;;;;;;;5072996;28;20489;-68
2022/01/04 10:57:38;;;;;;;44.35;19.02;;;;;;;;;;5053323;28;20080;-68
2022/01/04 11:00:15;;;;;;;47.92;19.52;;;;;;;;;;5046801;28;20049;-67
2022/01/04 11:02:41;;;;;;;47.35;18.08;;;;;;;;;;5052431;28;20017;-69
2022/01/04 11:05:13;;;;;;;38.90;18.02;;;;;;;;;;5053050;28;20623;-68
2022/01/04 11:07:58;;;;;;;34.05;16.95;;;;;;;;;;5053327;28;20108;-68
2022/01/04 11:10:25;;;;;;;36.60;17.00;;;;;;;;;;5053220;28;20104;-68
2022/01/04 11:12:51;;;;;;;39.58;18.73;;;;;;;;;;5052239;28;20021;-68
2022/01/04 11:15:18;;;;;;;48.05;19.30;;;;;;;;;;5053016;28;20021;-69
2022/01/04 11:17:44;;;;;;;50.97;21.75;;;;;;;;;;5048875;28;20032;-68
2022/01/04 11:20:11;;;;;;;59.05;22.20;;;;;;;;;;5047270;28;20017;-68
2022/01/04 11:22:42;;;;;;;55.00;23.05;;;;;;;;;;5051728;28;20029;-67
2022/01/04 11:25:08;;;;;;;54.38;21.95;;;;;;;;;;5052542;28;20162;-68
2022/01/04 11:27:38;;;;;;;52.63;21.15;;;;;;;;;;5052997;28;20128;-68
2022/01/04 11:30:07;;;;;;;67.57;23.45;;;;;;;;;;5053438;28;20044;-68
2022/01/04 11:32:37;;;;;;;50.97;22.08;;;;;;;;;;5034558;28;20445;-69
2022/01/04 11:35:13;;;;;;;40.95;19.80;;;;;;;;;;5052414;28;20447;-68
2022/01/04 11:37:42;;;;;;;58.15;22.35;;;;;;;;;;5052954;28;20066;-68
2022/01/04 11:40:27;;;;;;;69.07;23.83;;;;;;;;;;5052488;28;20032;-69
2022/01/04 11:42:54;;;;;;;54.05;20.77;;;;;;;;;;5020376;28;20029;-68
2022/01/04 11:45:38;;;;;;;48.08;20.10;;;;;;;;;;5023522;28;20029;-68
2022/01/04 11:48:23;;;;;;;52.85;19.75;;;;;;;;;;5045776;28;20033;-68
2022/01/04 11:50:49;;;;;;;51.33;20.45;;;;;;;;;;5020613;28;20052;-67
2022/01/04 11:53:15;;;;;;;50.00;20.08;;;;;;;;;;5050856;28;20052;-69
2022/01/04 11:55:47;;;;;;;61.03;19.75;;;;;;;;;;5051715;28;20021;-69
2022/01/04 11:58:17;;;;;;;58.75;20.70;;;;;;;;;;5052346;28;20025;-68
2022/01/04 12:00:55;;;;;;;45.55;20.45;;;;;;;;;;5052157;28;20406;-69
2022/01/04 12:03:35;;;;;;;56.03;22.02;;;;;;;;;;5040598;28;20029;-69
2022/01/04 12:06:02;;;;;;;41.35;19.08;;;;;;;;;;5050377;28;20021;-70
2022/01/04 12:08:41;;;;;;;51.17;20.80;;;;;;;;;;5051991;28;20021;-69
2022/01/04 12:11:21;;;;;;;32.53;17.95;;;;;;;;;;5051957;28;20029;-69
2022/01/04 12:13:48;;;;;;;39.03;17.65;;;;;;;;;;5049717;28;20088;-68
2022/01/04 12:16:14;;;;;;;33.53;15.57;;;;;;;;;;5031514;28;20036;-69
2022/01/04 12:18:39;;;;;;;24.75;10.15;;;;;;;;;;5046784;28;21058;-69
2022/01/04 12:21:20;;;;;;;16.65;8.48;;;;;;;;;;5050866;28;20087;-68
2022/01/04 12:23:46;;;;;;;20.13;8.70;;;;;;;;;;5050143;28;20272;-68
2022/01/04 12:26:13;;;;;;;15.68;7.47;;;;;;;;;;5049401;28;20048;-69
2022/01/04 12:28:59;;;;;;;12.25;6.57;;;;;;;;;;5050701;28;20017;-67
2022/01/04 12:31:26;;;;;;;9.35;5.30;;;;;;;;;;5050424;28;20108;-68
2022/01/04 12:33:55;;;;;;;13.52;5.78;;;;;;;;;;5048148;28;20486;-68
2022/01/04 12:36:37;;;;;;;12.77;6.22;;;;;;;;;;5015362;28;20562;-72
2022/01/04 12:39:04;;;;;;;12.32;6.50;;;;;;;;;;5037715;28;20104;-70
2022/01/04 12:41:30;;;;;;;12.32;6.50;;;;;;;;;;5037244;28;20053;-68
2022/01/04 12:43:57;;;;;;;11.65;5.88;;;;;;;;;;5038185;28;20058;-66
2022/01/04 12:46:42;;;;;;;13.60;5.88;;;;;;;;;;5033886;28;20478;-68
2022/01/04 12:49:13;;;;;;;11.90;6.88;;;;;;;;;;5050939;28;20382;-67
2022/01/04 12:51:47;;;;;;;10.10;5.97;;;;;;;;;;5051299;28;20427;-67
2022/01/04 12:54:17;;;;;;;10.25;5.20;;;;;;;;;;5042311;28;20109;-68
2022/01/04 12:56:47;;;;;;;9.40;3.85;;;;;;;;;;5050934;28;20098;-69
2022/01/04 12:59:25;;;;;;;8.20;4.60;;;;;;;;;;5031407;28;20483;-66
2022/01/04 13:01:52;;;;;;;6.85;3.95;;;;;;;;;;5029729;28;20021;-69
2022/01/04 13:04:23;;;;;;;10.65;3.80;;;;;;;;;;5030375;28;20029;-68
2022/01/04 13:06:49;;;;;;;5.90;3.60;;;;;;;;;;5037308;28;20036;-69
2022/01/04 13:09:25;;;;;;;7.63;3.78;;;;;;;;;;5041562;28;20045;-68
2022/01/04 13:11:56;;;;;;;7.03;3.15;;;;;;;;;;5034351;28;20392;-69
2022/01/04 13:14:23;;;;;;;5.23;3.60;;;;;;;;;;5037393;28;20471;-69
2022/01/04 13:16:50;;;;;;;5.05;3.30;;;;;;;;;;5050858;28;20029;-68
2022/01/04 13:19:17;;;;;;;7.20;3.53;;;;;;;;;;5047247;28;20104;-68
2022/01/04 13:21:44;;;;;;;5.00;3.22;;;;;;;;;;5049460;28;20028;-68
2022/01/04 13:24:10;;;;;;;7.68;3.80;;;;;;;;;;5037694;28;20460;-69
2022/01/04 13:26:36;;;;;;;8.13;4.35;;;;;;;;;;5026446;28;20036;-68
2022/01/04 13:29:03;;;;;;;6.68;4.70;;;;;;;;;;5035521;28;20109;-69
2022/01/04 13:31:29;;;;;;;12.07;6.20;;;;;;;;;;5015393;28;20037;-69
2022/01/04 13:33:56;;;;;;;10.68;6.50;;;;;;;;;;5027502;28;20025;-68
2022/01/04 13:36:23;;;;;;;11.15;7.40;;;;;;;;;;5036902;28;20036;-69
2022/01/04 13:38:50;;;;;;;13.30;7.47;;;;;;;;;;5047742;28;20374;-68
2022/01/04 13:41:31;;;;;;;18.55;8.02;;;;;;;;;;5035078;28;20021;-68
2022/01/04 13:44:01;;;;;;;13.27;6.72;;;;;;;;;;5025282;28;20397;-68
2022/01/04 13:46:27;;;;;;;11.05;5.68;;;;;;;;;;5037712;28;20040;-68
2022/01/04 13:48:53;;;;;;;10.10;5.15;;;;;;;;;;5027938;28;20025;-68
2022/01/04 13:51:20;;;;;;;8.20;4.50;;;;;;;;;;5039970;28;20028;-68
2022/01/04 13:53:48;;;;;;;7.55;3.70;;;;;;;;;;5030422;28;20021;-68
2022/01/04 13:56:16;;;;;;;7.72;4.55;;;;;;;;;;5040876;28;20108;-69
2022/01/04 13:58:49;;;;;;;6.28;4.25;;;;;;;;;;5038535;28;20486;-69
2022/01/04 14:01:34;;;;;;;5.38;3.33;;;;;;;;;;5036627;28;20033;-69
2022/01/04 14:04:08;;;;;;;6.65;3.40;;;;;;;;;;5049911;28;20174;-69
2022/01/04 14:06:44;;;;;;;6.32;3.20;;;;;;;;;;5045302;28;20132;-68
2022/01/04 14:09:23;;;;;;;7.82;4.40;;;;;;;;;;5053028;28;20478;-68
2022/01/04 14:12:10;;;;;;;8.25;3.88;;;;;;;;;;5041256;28;20105;-67
2022/01/04 14:14:45;;;;;;;8.10;4.38;;;;;;;;;;5032442;28;20098;-69
2022/01/04 14:17:11;;;;;;;4.90;3.20;;;;;;;;;;5033831;28;20541;-69
2022/01/04 14:19:40;;;;;;;6.18;3.10;;;;;;;;;;5048200;28;20081;-68
2022/01/04 14:22:07;;;;;;;5.10;2.58;;;;;;;;;;5054815;28;20547;-68
2022/01/04 14:24:33;;;;;;;7.53;3.65;;;;;;;;;;5035443;28;20029;-68
2022/01/04 14:27:00;;;;;;;7.38;4.57;;;;;;;;;;5046710;28;20021;-68
2022/01/04 14:29:30;;;;;;;5.82;3.95;;;;;;;;;;5033614;28;20029;-68
2022/01/04 14:31:57;;;;;;;6.40;4.00;;;;;;;;;;5051220;28;20030;-69
2022/01/04 14:34:23;;;;;;;6.45;4.15;;;;;;;;;;5026151;28;20068;-68
2022/01/04 14:36:49;;;;;;;5.80;4.10;;;;;;;;;;5052846;28;20025;-71
2022/01/04 14:39:15;;;;;;;5.57;3.70;;;;;;;;;;5051667;28;20180;-68
2022/01/04 14:41:41;;;;;;;6.22;4.68;;;;;;;;;;5043163;28;20355;-68
2022/01/04 14:44:07;;;;;;;5.88;4.40;;;;;;;;;;5050356;28;20032;-68
2022/01/04 14:46:33;;;;;;;7.18;4.07;;;;;;;;;;5044853;28;20033;-67
2022/01/04 14:48:59;;;;;;;4.88;3.30;;;;;;;;;;5047006;28;20025;-68
2022/01/04 14:51:25;;;;;;;3.17;2.67;;;;;;;;;;5053926;28;20520;-69